createdAt,value
2022-09-30T00:00:12.021Z,8.00
2022-09-30T00:04:26.514Z,8.10
2022-09-30T00:08:40.499Z,8.10
2022-09-30T00:12:54.377Z,8.10
2022-09-30T00:17:09.554Z,8.20
2022-09-30T00:21:24.286Z,8.20
2022-09-30T00:25:38.172Z,8.20
2022-09-30T00:29:52.065Z,8.20
2022-09-30T00:34:11.153Z,8.20
2022-09-30T00:38:25.015Z,8.20
2022-09-30T00:42:42.097Z,8.10
2022-09-30T00:46:58.955Z,8.00
2022-09-30T00:51:14.092Z,7.90
2022-09-30T00:55:34.818Z,7.80
2022-09-30T00:59:52.324Z,7.80
2022-09-30T01:04:11.646Z,7.70
2022-09-30T01:08:28.427Z,7.60
2022-09-30T01:12:42.244Z,7.60
2022-09-30T01:17:07.220Z,7.50
2022-09-30T01:21:46.027Z,7.50
2022-09-30T01:26:33.657Z,7.50
2022-09-30T01:31:04.693Z,7.50
2022-09-30T01:35:26.342Z,7.40
2022-09-30T01:39:50.264Z,7.40
2022-09-30T01:44:14.599Z,7.30
2022-09-30T01:48:37.260Z,7.30
2022-09-30T01:52:57.791Z,7.20
2022-09-30T01:57:18.208Z,7.20
2022-09-30T02:01:36.945Z,7.10
2022-09-30T02:05:57.854Z,7.10
2022-09-30T02:10:17.608Z,7.10
2022-09-30T02:14:37.763Z,7.00
2022-09-30T02:18:55.399Z,7.00
2022-09-30T02:23:15.263Z,7.00
2022-09-30T02:27:36.275Z,6.90
2022-09-30T02:31:55.044Z,6.90
2022-09-30T02:36:16.295Z,6.90
2022-09-30T02:40:36.927Z,6.90
2022-09-30T02:44:54.016Z,6.80
2022-09-30T02:49:12.645Z,6.80
2022-09-30T02:53:32.384Z,6.80
2022-09-30T02:57:57.664Z,6.80
2022-09-30T03:02:11.649Z,6.80
2022-09-30T03:06:25.767Z,6.90
2022-09-30T03:10:40.499Z,6.90
2022-09-30T03:15:28.218Z,6.90
2022-09-30T03:19:51.921Z,7.00
2022-09-30T03:24:23.754Z,7.00
2022-09-30T03:28:45.787Z,7.00
2022-09-30T03:33:12.061Z,7.10
2022-09-30T03:37:33.752Z,7.20
2022-09-30T03:41:55.262Z,7.30
2022-09-30T03:46:16.773Z,7.30
2022-09-30T03:50:33.308Z,7.40
2022-09-30T03:54:49.120Z,7.50
2022-09-30T03:59:03.070Z,7.50
2022-09-30T04:03:17.066Z,7.60
2022-09-30T04:07:32.303Z,7.70
2022-09-30T04:11:46.230Z,7.70
2022-09-30T04:16:00.526Z,7.80
2022-09-30T04:20:14.455Z,7.80
2022-09-30T04:24:29.651Z,7.80
2022-09-30T04:28:43.951Z,7.80
2022-09-30T04:32:57.993Z,7.90
2022-09-30T04:37:11.761Z,7.80
2022-09-30T04:41:26.920Z,7.70
2022-09-30T04:45:45.055Z,7.70
2022-09-30T04:49:59.065Z,7.60
2022-09-30T04:54:13.318Z,7.50
2022-09-30T04:58:32.260Z,7.40
2022-09-30T05:02:48.588Z,7.30
2022-09-30T05:07:03.815Z,7.30
2022-09-30T05:11:19.735Z,7.20
2022-09-30T05:15:36.756Z,7.10
2022-09-30T05:19:52.743Z,7.00
2022-09-30T05:24:07.159Z,6.90
2022-09-30T05:28:21.110Z,6.90
2022-09-30T05:32:36.702Z,6.80
2022-09-30T05:36:50.711Z,6.80
2022-09-30T05:41:09.370Z,6.80
2022-09-30T05:45:23.530Z,6.80
2022-09-30T05:49:40.171Z,6.90
2022-09-30T05:53:53.955Z,7.00
2022-09-30T05:58:07.790Z,7.10
2022-09-30T06:02:21.570Z,7.20
2022-09-30T06:06:37.064Z,7.30
2022-09-30T06:10:51.252Z,7.40
2022-09-30T06:15:05.896Z,7.60
2022-09-30T06:19:21.302Z,7.70
2022-09-30T06:23:36.757Z,7.90
2022-09-30T06:27:50.436Z,8.00
2022-09-30T06:32:04.283Z,8.30
2022-09-30T06:36:18.526Z,8.50
2022-09-30T06:40:33.711Z,9.60
2022-09-30T06:44:52.896Z,11.60
2022-09-30T06:49:13.531Z,13.70
2022-09-30T06:53:29.420Z,15.70
2022-09-30T06:57:45.175Z,17.50
2022-09-30T07:01:58.967Z,18.70
2022-09-30T07:06:14.688Z,19.50
2022-09-30T07:10:28.468Z,20.30
2022-09-30T07:14:43.680Z,21.10
2022-09-30T07:18:58.444Z,21.90
2022-09-30T07:23:12.474Z,22.70
2022-09-30T07:27:27.061Z,23.40
2022-09-30T07:31:42.508Z,23.90
2022-09-30T07:35:57.357Z,24.30
2022-09-30T07:40:12.154Z,24.60
2022-09-30T07:44:26.333Z,24.90
2022-09-30T07:48:47.901Z,25.30
2022-09-30T07:53:01.708Z,25.70
2022-09-30T07:57:15.455Z,26.20
2022-09-30T08:01:31.592Z,26.60
2022-09-30T08:05:48.578Z,27.00
2022-09-30T08:10:02.364Z,27.10
2022-09-30T08:14:18.515Z,26.70
2022-09-30T08:18:33.193Z,26.00
2022-09-30T08:22:48.457Z,25.00
2022-09-30T08:27:02.189Z,23.60
2022-09-30T08:31:17.830Z,22.20
2022-09-30T08:35:31.896Z,21.10
2022-09-30T08:39:48.598Z,20.20
2022-09-30T08:44:18.003Z,19.70
2022-09-30T08:48:41.610Z,19.50
2022-09-30T08:52:59.462Z,19.70
2022-09-30T08:57:15.018Z,20.40
2022-09-30T09:01:33.730Z,21.80
2022-09-30T09:05:55.893Z,23.40
2022-09-30T09:10:25.123Z,24.90
2022-09-30T09:14:54.755Z,26.10
2022-09-30T09:19:12.073Z,27.20
2022-09-30T09:23:26.786Z,28.10
2022-09-30T09:27:52.313Z,28.70
2022-09-30T09:32:14.443Z,29.00
2022-09-30T09:36:40.417Z,29.30
2022-09-30T09:41:09.562Z,29.50
2022-09-30T09:45:29.776Z,29.60
2022-09-30T09:49:46.110Z,29.20
2022-09-30T09:54:02.433Z,28.80
2022-09-30T09:58:17.542Z,28.80
2022-09-30T10:02:33.212Z,28.70
2022-09-30T10:06:54.123Z,28.40
2022-09-30T10:11:18.843Z,27.90
2022-09-30T10:15:33.365Z,27.30
2022-09-30T10:19:52.361Z,27.20
2022-09-30T10:24:21.077Z,27.60
2022-09-30T10:28:46.991Z,27.80
2022-09-30T10:33:03.630Z,27.70
2022-09-30T10:37:21.046Z,27.30
2022-09-30T10:41:38.372Z,27.40
2022-09-30T10:46:13.792Z,27.60
2022-09-30T10:50:28.021Z,27.60
2022-09-30T10:54:53.878Z,27.60
2022-09-30T10:59:29.863Z,27.70
2022-09-30T11:03:57.549Z,28.10
2022-09-30T11:08:18.022Z,28.30
2022-09-30T11:12:43.099Z,28.20
2022-09-30T11:17:06.547Z,28.20
2022-09-30T11:21:24.826Z,27.90
2022-09-30T11:25:44.376Z,27.50
2022-09-30T11:30:05.630Z,27.50
2022-09-30T11:34:35.834Z,26.90
2022-09-30T11:39:07.802Z,25.40
2022-09-30T11:43:32.077Z,23.90
2022-09-30T11:47:59.466Z,22.70
2022-09-30T11:52:20.491Z,22.50
2022-09-30T11:56:47.027Z,22.90
2022-09-30T12:01:13.168Z,23.10
2022-09-30T12:05:33.165Z,23.00
2022-09-30T12:09:52.545Z,22.70
2022-09-30T12:14:12.013Z,22.10
2022-09-30T12:18:30.559Z,21.60
2022-09-30T12:22:47.756Z,21.20
2022-09-30T12:27:03.501Z,20.70
2022-09-30T12:31:51.924Z,20.30
2022-09-30T12:36:32.299Z,20.00
2022-09-30T12:40:58.175Z,19.80
2022-09-30T12:45:49.905Z,19.50
2022-09-30T12:50:08.207Z,19.40
2022-09-30T12:54:26.350Z,19.30
2022-09-30T12:58:44.949Z,19.40
2022-09-30T13:03:06.526Z,19.40
2022-09-30T13:07:23.386Z,19.40
2022-09-30T13:11:42.075Z,19.20
2022-09-30T13:16:03.236Z,19.30
2022-09-30T13:20:55.188Z,19.30
2022-09-30T13:25:13.985Z,19.40
2022-09-30T13:29:49.684Z,19.50
2022-09-30T13:34:12.684Z,19.50
2022-09-30T13:38:38.013Z,19.40
2022-09-30T13:42:56.476Z,19.10
2022-09-30T13:47:19.423Z,18.90
2022-09-30T13:51:35.012Z,18.70
2022-09-30T13:55:53.909Z,18.50
2022-09-30T14:00:12.716Z,18.60
2022-09-30T14:04:51.603Z,18.60
2022-09-30T14:09:16.215Z,18.70
2022-09-30T14:13:45.779Z,18.70
2022-09-30T14:18:23.887Z,18.50
2022-09-30T14:22:38.317Z,18.40
2022-09-30T14:27:03.574Z,18.40
2022-09-30T14:31:21.057Z,18.50
2022-09-30T14:35:36.902Z,18.50
2022-09-30T14:39:53.120Z,18.60
2022-09-30T14:44:08.795Z,18.60
2022-09-30T14:48:28.237Z,18.50
2022-09-30T14:52:45.801Z,18.40
2022-09-30T14:57:02.382Z,18.20
2022-09-30T15:01:18.700Z,18.10
2022-09-30T15:05:37.633Z,18.00
2022-09-30T15:09:52.677Z,17.80
2022-09-30T15:14:10.229Z,17.70
2022-09-30T15:18:30.504Z,17.60
2022-09-30T15:22:46.726Z,17.50
2022-09-30T15:27:02.828Z,17.40
2022-09-30T15:31:25.146Z,17.30
2022-09-30T15:35:39.708Z,17.20
2022-09-30T15:40:21.026Z,17.20
2022-09-30T15:44:39.824Z,17.10
2022-09-30T15:48:54.426Z,17.00
2022-09-30T15:53:20.025Z,16.90
2022-09-30T15:57:48.219Z,16.80
2022-09-30T16:02:02.323Z,16.60
2022-09-30T16:06:17.826Z,16.50
2022-09-30T16:10:32.085Z,16.50
2022-09-30T16:14:50.541Z,16.40
2022-09-30T16:19:05.389Z,16.30
2022-09-30T16:23:30.169Z,16.10
2022-09-30T16:27:44.575Z,16.10
2022-09-30T16:32:00.162Z,15.90
2022-09-30T16:36:14.812Z,15.90
2022-09-30T16:40:29.829Z,15.80
2022-09-30T16:44:44.622Z,15.60
2022-09-30T16:49:00.307Z,15.50
2022-09-30T16:53:14.257Z,15.30
2022-09-30T16:57:28.221Z,15.10
2022-09-30T17:01:42.967Z,15.00
2022-09-30T17:05:58.392Z,14.80
2022-09-30T17:10:22.260Z,14.70
2022-09-30T17:14:36.767Z,14.50
2022-09-30T17:18:50.886Z,14.40
2022-09-30T17:23:07.495Z,14.20
2022-09-30T17:27:21.569Z,14.00
2022-09-30T17:31:35.274Z,13.90
2022-09-30T17:36:00.254Z,13.70
2022-09-30T17:40:34.271Z,13.60
2022-09-30T17:44:48.504Z,13.50
2022-09-30T17:49:02.304Z,13.40
2022-09-30T17:53:18.954Z,13.40
2022-09-30T17:57:38.517Z,13.40
2022-09-30T18:01:52.424Z,13.40
2022-09-30T18:06:06.281Z,13.40
2022-09-30T18:10:20.142Z,13.20
2022-09-30T18:14:36.615Z,13.20
2022-09-30T18:18:50.304Z,13.10
2022-09-30T18:23:04.044Z,13.00
2022-09-30T18:27:17.757Z,12.90
2022-09-30T18:31:36.946Z,12.90
2022-09-30T18:35:52.224Z,12.90
2022-09-30T18:40:06.986Z,12.90
2022-09-30T18:44:20.798Z,12.90
2022-09-30T18:48:36.462Z,12.90
2022-09-30T18:52:52.334Z,12.90
2022-09-30T18:57:06.635Z,12.80
2022-09-30T19:01:21.100Z,12.80
2022-09-30T19:05:37.072Z,12.80
2022-09-30T19:09:51.482Z,12.70
2022-09-30T19:14:06.949Z,12.50
2022-09-30T19:18:21.233Z,12.40
2022-09-30T19:22:37.311Z,12.40
2022-09-30T19:26:52.400Z,12.30
2022-09-30T19:31:11.724Z,12.20
2022-09-30T19:35:35.763Z,12.20
2022-09-30T19:39:54.755Z,12.10
2022-09-30T19:44:08.997Z,12.00
2022-09-30T19:48:22.694Z,11.80
2022-09-30T19:52:42.528Z,11.70
2022-09-30T19:57:03.316Z,11.60
2022-09-30T20:01:19.017Z,11.60
2022-09-30T20:05:32.929Z,11.50
2022-09-30T20:09:47.656Z,11.50
2022-09-30T20:14:21.988Z,11.50
2022-09-30T20:18:36.794Z,11.40
2022-09-30T20:22:50.536Z,11.30
2022-09-30T20:27:04.262Z,11.20
2022-09-30T20:31:19.429Z,11.10
2022-09-30T20:35:36.743Z,11.10
2022-09-30T20:39:50.436Z,11.00
2022-09-30T20:44:05.075Z,10.90
2022-09-30T20:48:20.159Z,10.80
2022-09-30T20:52:34.101Z,10.60
2022-09-30T20:57:06.812Z,10.50
2022-09-30T21:01:23.127Z,10.40
2022-09-30T21:05:38.421Z,10.30
2022-09-30T21:09:52.514Z,10.20
2022-09-30T21:14:06.474Z,10.20
2022-09-30T21:18:20.204Z,10.20
2022-09-30T21:22:37.084Z,10.10
2022-09-30T21:26:50.777Z,10.10
2022-09-30T21:31:06.551Z,10.00
2022-09-30T21:35:21.132Z,10.00
2022-09-30T21:39:36.215Z,10.00
2022-09-30T21:43:50.163Z,9.90
2022-09-30T21:48:04.442Z,9.80
2022-09-30T21:52:18.147Z,9.80
2022-09-30T21:56:33.578Z,9.70
2022-09-30T22:00:47.392Z,9.70
2022-09-30T22:05:01.375Z,9.70
2022-09-30T22:09:15.523Z,9.70
2022-09-30T22:13:31.535Z,9.70
2022-09-30T22:17:45.377Z,9.80
2022-09-30T22:21:59.199Z,9.80
2022-09-30T22:26:16.913Z,9.90
2022-09-30T22:30:32.445Z,9.90
2022-09-30T22:35:08.820Z,9.80
2022-09-30T22:39:23.616Z,9.80
2022-09-30T22:43:38.704Z,9.70
2022-09-30T22:47:55.343Z,9.80
2022-09-30T22:52:09.472Z,9.70
2022-09-30T22:56:23.144Z,9.70
2022-09-30T23:00:36.852Z,9.70
2022-09-30T23:04:51.993Z,9.60
2022-09-30T23:09:06.259Z,9.60
2022-09-30T23:13:20.698Z,9.60
2022-09-30T23:17:35.811Z,9.60
2022-09-30T23:21:50.929Z,9.60
2022-09-30T23:26:06.896Z,9.60
2022-09-30T23:30:20.658Z,9.50
2022-09-30T23:34:34.420Z,9.50
2022-09-30T23:38:49.583Z,9.50
2022-09-30T23:43:03.866Z,9.60
2022-09-30T23:47:21.556Z,9.60
2022-09-30T23:51:35.644Z,9.60
2022-09-30T23:55:57.664Z,9.60
